Time;durP1;ratioP1;P1;durP2;ratioP2;P2;SDS_P1;SDS_P2;PMS_P1;PMS_P2;Temp;Humidity;BMP_temperature;BMP_pressure;BME280_temperature;BME280_humidity;BME280_pressure;Samples;Min_cycle;Max_cycle;Signal;HPM_P1;HPM_P2
2020/12/16 00:01:58;;;;;;;129.60;24.63;;;8.40;99.90;;;;;;6223421;28;20050;-76
2020/12/16 00:04:59;;;;;;;109.55;23.95;;;8.40;99.90;;;;;;6223199;28;20076;-77
2020/12/16 00:08:01;;;;;;;78.95;26.23;;;8.30;99.90;;;;;;6221906;28;20069;-77
2020/12/16 00:11:03;;;;;;;98.18;25.33;;;8.40;99.90;;;;;;6222720;28;20053;-76
2020/12/16 00:14:04;;;;;;;67.22;23.38;;;8.40;99.90;;;;;;6222938;28;20099;-77
2020/12/16 00:17:05;;;;;;;125.00;26.58;;;8.40;99.90;;;;;;6222963;28;20056;-77
2020/12/16 00:20:08;;;;;;;64.68;24.00;;;8.40;99.90;;;;;;6222700;28;20086;-77
2020/12/16 00:23:11;;;;;;;103.28;25.50;;;8.30;99.90;;;;;;6222647;28;20428;-76
2020/12/16 00:26:13;;;;;;;80.68;25.73;;;8.30;99.90;;;;;;6222348;28;20037;-76
2020/12/16 00:29:14;;;;;;;100.95;25.73;;;8.40;99.90;;;;;;6222758;28;20050;-77
2020/12/16 00:32:16;;;;;;;71.43;24.00;;;8.40;99.90;;;;;;6222497;28;20092;-76
2020/12/16 00:35:18;;;;;;;94.70;25.98;;;8.30;99.90;;;;;;6223520;28;20630;-76
2020/12/16 00:38:20;;;;;;;67.95;22.90;;;8.30;99.90;;;;;;6222026;28;20129;-77
2020/12/16 00:41:21;;;;;;;74.13;24.85;;;8.20;99.90;;;;;;6222818;28;20054;-77
2020/12/16 00:44:23;;;;;;;63.00;25.48;;;8.20;99.90;;;;;;6222348;28;20054;-76
2020/12/16 00:47:24;;;;;;;102.82;26.52;;;8.20;99.90;;;;;;6221720;28;20092;-77
2020/12/16 00:50:26;;;;;;;74.43;25.98;;;8.10;99.90;;;;;;6222697;28;20065;-77
2020/12/16 00:53:28;;;;;;;91.03;24.52;;;8.10;99.90;;;;;;6223268;28;20054;-77
2020/12/16 00:56:30;;;;;;;64.55;22.33;;;8.00;99.90;;;;;;6222320;28;20084;-77
2020/12/16 00:59:31;;;;;;;56.97;21.15;;;8.00;99.90;;;;;;6210381;28;20511;-76
2020/12/16 01:02:32;;;;;;;58.75;20.70;;;8.00;99.90;;;;;;6197805;28;20097;-76
2020/12/16 01:05:34;;;;;;;76.35;23.10;;;8.00;99.90;;;;;;6198106;28;20500;-76
2020/12/16 01:08:38;;;;;;;99.93;21.25;;;8.00;99.90;;;;;;6221238;28;20542;-76
2020/12/16 01:11:39;;;;;;;68.07;24.23;;;7.90;99.90;;;;;;6222466;28;20476;-76
2020/12/16 01:14:41;;;;;;;66.72;21.10;;;7.90;99.90;;;;;;6221539;28;20089;-76
2020/12/16 01:17:43;;;;;;;56.75;20.83;;;7.90;99.90;;;;;;6220617;28;20059;-76
2020/12/16 01:20:44;;;;;;;104.57;24.48;;;7.90;99.90;;;;;;6221769;28;20056;-76
2020/12/16 01:23:47;;;;;;;132.95;26.25;;;7.90;99.90;;;;;;6221461;28;20042;-76
2020/12/16 01:26:50;;;;;;;96.75;23.92;;;7.90;99.90;;;;;;6220997;28;20060;-76
2020/12/16 01:29:51;;;;;;;61.75;20.85;;;7.90;99.90;;;;;;6221391;28;20061;-76
2020/12/16 01:32:54;;;;;;;53.97;19.92;;;7.80;99.90;;;;;;6221144;28;20081;-76
2020/12/16 01:35:55;;;;;;;81.10;20.85;;;7.70;99.90;;;;;;6221500;28;20049;-77
2020/12/16 01:38:57;;;;;;;48.83;20.13;;;7.70;99.90;;;;;;6220590;28;20068;-77
2020/12/16 01:41:58;;;;;;;58.15;18.05;;;7.70;99.90;;;;;;6221343;28;20049;-77
2020/12/16 01:45:03;;;;;;;47.17;18.63;;;7.70;99.90;;;;;;6221649;28;20626;-77
2020/12/16 01:48:05;;;;;;;71.63;21.13;;;7.80;99.90;;;;;;6220607;28;20046;-77
2020/12/16 01:51:06;;;;;;;65.03;19.15;;;7.70;99.90;;;;;;6221195;28;20507;-76
2020/12/16 01:54:09;;;;;;;91.32;21.80;;;7.70;99.90;;;;;;6220893;28;20108;-76
2020/12/16 01:57:13;;;;;;;66.10;19.98;;;7.70;99.90;;;;;;6221166;28;20054;-77
2020/12/16 02:00:15;;;;;;;65.35;21.73;;;7.70;99.90;;;;;;6220808;28;20118;-76
2020/12/16 02:03:21;;;;;;;57.78;21.70;;;7.70;99.90;;;;;;6221203;28;20100;-77
2020/12/16 02:06:24;;;;;;;79.15;24.38;;;7.70;99.90;;;;;;6221268;28;20049;-76
2020/12/16 02:09:26;;;;;;;84.78;25.05;;;7.70;99.90;;;;;;6220778;28;20057;-76
2020/12/16 02:12:33;;;;;;;76.20;26.08;;;7.60;99.90;;;;;;6221068;28;20046;-77
2020/12/16 02:15:35;;;;;;;158.93;30.27;;;7.70;99.90;;;;;;6220385;28;20052;-77
2020/12/16 02:18:36;;;;;;;123.68;24.77;;;7.60;99.90;;;;;;6219767;28;20651;-76
2020/12/16 02:21:38;;;;;;;91.70;23.38;;;7.60;99.90;;;;;;6220720;28;20056;-76
2020/12/16 02:24:44;;;;;;;55.45;19.58;;;7.60;99.90;;;;;;6221187;28;20108;-76
2020/12/16 02:27:46;;;;;;;54.80;17.40;;;7.60;99.90;;;;;;6219955;28;20052;-76
2020/12/16 02:30:47;;;;;;;73.78;17.58;;;7.60;99.90;;;;;;6220480;28;20053;-76
2020/12/16 02:33:49;;;;;;;43.65;16.95;;;7.60;99.90;;;;;;6224626;28;20041;-77
2020/12/16 02:36:50;;;;;;;48.88;18.75;;;7.60;99.90;;;;;;6224940;28;20077;-77
2020/12/16 02:39:52;;;;;;;48.65;17.33;;;7.60;99.90;;;;;;6224634;28;20050;-77
2020/12/16 02:42:54;;;;;;;51.30;18.42;;;7.70;99.90;;;;;;6225944;28;20057;-77
2020/12/16 02:45:56;;;;;;;42.13;16.63;;;7.70;99.90;;;;;;6224853;28;20050;-76
2020/12/16 02:48:57;;;;;;;40.20;16.08;;;7.70;99.90;;;;;;6224037;28;20745;-77
2020/12/16 02:51:59;;;;;;;35.78;16.73;;;7.70;99.90;;;;;;6224894;28;20045;-77
2020/12/16 02:55:00;;;;;;;33.70;15.63;;;7.70;99.90;;;;;;6224358;28;20133;-77
2020/12/16 02:58:02;;;;;;;33.80;19.30;;;7.80;99.90;;;;;;6223947;28;20038;-77
2020/12/16 03:01:04;;;;;;;36.45;16.27;;;7.80;99.90;;;;;;6225696;28;20077;-76
2020/12/16 03:04:05;;;;;;;32.28;14.18;;;7.80;99.90;;;;;;6224275;28;20057;-76
2020/12/16 03:07:06;;;;;;;41.80;15.35;;;7.80;99.90;;;;;;6223843;28;20057;-76
2020/12/16 03:10:08;;;;;;;40.10;14.68;;;7.80;99.90;;;;;;6224323;28;20125;-75
2020/12/16 03:13:10;;;;;;;40.92;16.42;;;7.80;99.90;;;;;;6224934;28;20049;-76
2020/12/16 03:16:17;;;;;;;36.88;15.85;;;7.80;99.90;;;;;;6223764;28;20124;-75
2020/12/16 03:19:19;;;;;;;34.90;13.82;;;7.80;99.90;;;;;;6224050;28;20052;-76
2020/12/16 03:22:20;;;;;;;51.97;16.13;;;7.80;99.90;;;;;;6223503;28;20527;-76
2020/12/16 03:25:21;;;;;;;57.30;15.65;;;7.70;99.90;;;;;;6223663;28;20129;-75
2020/12/16 03:28:23;;;;;;;34.10;15.30;;;7.70;99.90;;;;;;6223174;28;20129;-76
2020/12/16 03:31:25;;;;;;;36.05;13.90;;;7.60;99.90;;;;;;6223809;28;20052;-76
2020/12/16 03:34:27;;;;;;;32.47;13.75;;;7.60;99.90;;;;;;6223518;28;20129;-77
2020/12/16 03:37:28;;;;;;;37.70;14.85;;;7.60;99.90;;;;;;6223251;28;20053;-76
2020/12/16 03:40:29;;;;;;;41.17;14.95;;;7.70;99.90;;;;;;6224279;28;20049;-76
2020/12/16 03:43:31;;;;;;;34.05;15.98;;;7.70;99.90;;;;;;6221734;28;20116;-76
2020/12/16 03:46:33;;;;;;;44.75;15.82;;;7.60;99.90;;;;;;6223037;28;20069;-76
2020/12/16 03:49:34;;;;;;;28.75;14.00;;;7.60;99.90;;;;;;6222901;28;20443;-76
2020/12/16 03:52:35;;;;;;;48.25;16.33;;;7.60;99.90;;;;;;6223200;28;20199;-76
2020/12/16 03:55:37;;;;;;;31.48;13.32;;;7.60;99.90;;;;;;6223985;28;20053;-76
2020/12/16 03:58:42;;;;;;;37.53;16.25;;;7.70;99.90;;;;;;6222241;28;20049;-76
2020/12/16 04:01:43;;;;;;;34.67;14.43;;;7.70;99.90;;;;;;6222748;28;20057;-76
2020/12/16 04:04:44;;;;;;;35.33;14.77;;;7.70;99.90;;;;;;6223017;28;20112;-76
2020/12/16 04:07:46;;;;;;;37.22;15.68;;;7.70;99.90;;;;;;6222411;28;20134;-76
2020/12/16 04:10:47;;;;;;;30.48;16.80;;;7.70;99.90;;;;;;6222510;28;20050;-76
2020/12/16 04:13:49;;;;;;;33.42;14.82;;;7.70;99.90;;;;;;6223523;28;20049;-76
2020/12/16 04:16:51;;;;;;;42.67;15.65;;;7.70;99.90;;;;;;6222455;28;20054;-76
2020/12/16 04:19:52;;;;;;;41.40;14.93;;;7.70;99.90;;;;;;6222251;28;20133;-76
2020/12/16 04:22:53;;;;;;;42.22;14.35;;;7.70;99.90;;;;;;6222467;28;20099;-77
2020/12/16 04:25:55;;;;;;;37.45;15.45;;;7.70;99.90;;;;;;6222327;28;20038;-77
2020/12/16 04:28:57;;;;;;;68.60;16.70;;;7.70;99.90;;;;;;6222590;28;20046;-77
2020/12/16 04:31:58;;;;;;;55.38;17.08;;;7.90;99.90;;;;;;6223130;28;20528;-75
2020/12/16 04:35:00;;;;;;;46.47;17.08;;;7.90;99.90;;;;;;6223016;28;20052;-77
2020/12/16 04:38:01;;;;;;;34.78;15.75;;;7.80;99.90;;;;;;6222200;28;20423;-77
2020/12/16 04:41:02;;;;;;;34.88;15.82;;;7.80;99.90;;;;;;6223334;28;20053;-77
2020/12/16 04:44:06;;;;;;;27.67;12.50;;;7.90;99.90;;;;;;6222731;28;20053;-76
2020/12/16 04:47:08;;;;;;;24.20;11.80;;;8.10;99.90;;;;;;6223398;28;20045;-77
2020/12/16 04:50:10;;;;;;;23.88;10.25;;;8.40;99.90;;;;;;6222806;28;20253;-76
2020/12/16 04:53:14;;;;;;;34.17;10.43;;;8.30;99.90;;;;;;6223037;28;20507;-77
2020/12/16 04:56:16;;;;;;;42.97;12.07;;;8.20;99.90;;;;;;6222021;28;20049;-77
2020/12/16 04:59:19;;;;;;;68.40;14.20;;;8.10;99.90;;;;;;6221935;28;20050;-77
2020/12/16 05:02:20;;;;;;;45.65;11.57;;;8.00;99.90;;;;;;6221648;28;20451;-77
2020/12/16 05:05:22;;;;;;;53.47;12.45;;;8.00;99.90;;;;;;6222115;28;20052;-77
2020/12/16 05:08:23;;;;;;;44.40;12.85;;;7.90;99.90;;;;;;6222259;28;20046;-76
2020/12/16 05:11:34;;;;;;;40.60;10.70;;;8.00;99.90;;;;;;6222599;28;20046;-77
2020/12/16 05:14:36;;;;;;;35.63;10.65;;;7.90;99.90;;;;;;6222340;28;20128;-77
2020/12/16 05:17:37;;;;;;;53.05;11.68;;;7.80;99.90;;;;;;6221581;28;20053;-77
2020/12/16 05:20:40;;;;;;;33.90;10.68;;;7.80;99.90;;;;;;6223379;28;20057;-77
2020/12/16 05:23:41;;;;;;;28.27;12.13;;;7.80;99.90;;;;;;6237559;23;20046;-77
2020/12/16 05:26:50;;;;;;;32.08;11.13;;;7.80;99.90;;;;;;6220020;28;20127;-74
2020/12/16 05:29:55;;;;;;;31.42;11.63;;;7.90;99.90;;;;;;6220103;28;20041;-74
2020/12/16 05:33:01;;;;;;;35.90;12.60;;;7.90;99.90;;;;;;6220357;28;20077;-75
2020/12/16 05:36:02;;;;;;;68.43;12.52;;;7.90;99.90;;;;;;6220254;28;20041;-74
2020/12/16 05:39:03;;;;;;;44.13;12.95;;;7.90;99.90;;;;;;6219762;28;20038;-74
2020/12/16 05:42:05;;;;;;;58.80;16.70;;;7.90;99.90;;;;;;6220221;28;20128;-74
2020/12/16 05:45:13;;;;;;;68.05;12.63;;;7.80;99.90;;;;;;6220141;28;20553;-75
2020/12/16 05:48:14;;;;;;;;;;;7.80;99.90;;;;;;6220074;28;20069;-74
2020/12/16 05:51:17;;;;;;;40.30;13.38;;;7.80;99.90;;;;;;6219974;28;19992;-74
2020/12/16 05:54:18;;;;;;;43.10;12.98;;;7.80;99.90;;;;;;6219928;28;20499;-74
2020/12/16 05:57:21;;;;;;;36.22;12.25;;;7.70;99.90;;;;;;6220202;28;20141;-74
2020/12/16 06:00:23;;;;;;;32.22;14.25;;;7.70;99.90;;;;;;6220444;28;20041;-74
2020/12/16 06:03:28;;;;;;;65.80;13.70;;;7.70;99.90;;;;;;6220479;28;20080;-74
2020/12/16 06:06:29;;;;;;;40.45;13.23;;;7.60;99.90;;;;;;6221727;28;20132;-75
2020/12/16 06:09:32;;;;;;;52.35;15.32;;;7.60;99.90;;;;;;6225616;28;20050;-76
2020/12/16 06:12:38;;;;;;;45.78;14.30;;;7.60;99.90;;;;;;6226479;28;20050;-76
2020/12/16 06:15:59;;;;;;;42.08;15.30;;;7.60;99.90;;;;;;6225612;28;20503;-75
2020/12/16 06:19:02;;;;;;;29.95;13.38;;;7.50;99.90;;;;;;6224664;28;20622;-75
2020/12/16 06:22:08;;;;;;;30.65;12.40;;;7.40;99.90;;;;;;6225826;28;20046;-75
2020/12/16 06:25:11;;;;;;;35.80;12.30;;;7.40;99.90;;;;;;6254984;28;20097;-74
2020/12/16 06:28:14;;;;;;;36.03;12.75;;;7.40;99.90;;;;;;6257340;28;20030;-75
2020/12/16 06:31:23;;;;;;;39.00;12.65;;;7.50;99.90;;;;;;6249635;28;20077;-74
2020/12/16 06:34:24;;;;;;;32.85;12.75;;;7.50;99.90;;;;;;6249954;28;20026;-74
2020/12/16 06:37:26;;;;;;;32.85;13.02;;;7.50;99.90;;;;;;6255538;28;20105;-75
2020/12/16 06:40:43;;;;;;;28.95;13.38;;;7.60;99.90;;;;;;6255873;28;20026;-74
2020/12/16 06:43:45;;;;;;;29.02;14.05;;;7.70;99.90;;;;;;6236221;28;20087;-75
2020/12/16 06:46:49;;;;;;;29.35;12.55;;;7.70;99.90;;;;;;6226394;28;20046;-75
2020/12/16 06:49:51;;;;;;;38.90;18.23;;;7.80;99.90;;;;;;6225960;28;20050;-75
2020/12/16 06:52:52;;;;;;;37.78;12.48;;;7.80;99.90;;;;;;6226894;28;20142;-75
2020/12/16 06:56:06;;;;;;;22.00;10.93;;;7.80;99.90;;;;;;6224380;28;20042;-76
2020/12/16 06:59:07;;;;;;;38.28;14.75;;;7.80;99.90;;;;;;6223923;28;20042;-75
2020/12/16 07:02:10;;;;;;;29.52;12.18;;;7.80;99.90;;;;;;6223161;28;20041;-75
2020/12/16 07:05:34;;;;;;;32.88;14.30;;;7.80;99.90;;;;;;6210234;28;20096;-75
2020/12/16 07:08:36;;;;;;;32.40;12.32;;;7.80;99.90;;;;;;6216967;28;20046;-75
2020/12/16 07:11:39;;;;;;;22.92;12.00;;;7.80;99.90;;;;;;6199937;28;20129;-76
2020/12/16 07:14:40;;;;;;;35.83;14.73;;;7.70;99.90;;;;;;6216393;28;20070;-76
2020/12/16 07:17:42;;;;;;;30.38;14.93;;;7.70;99.90;;;;;;6223375;28;20054;-75
2020/12/16 07:20:43;;;;;;;28.00;12.55;;;7.70;99.90;;;;;;6223373;28;20042;-75
2020/12/16 07:23:47;;;;;;;25.15;11.35;;;7.70;99.90;;;;;;6201577;28;20054;-76
2020/12/16 07:26:51;;;;;;;16.77;11.57;;;7.70;99.90;;;;;;6198865;28;20047;-76
2020/12/16 07:29:57;;;;;;;27.27;9.32;;;7.70;99.90;;;;;;6199203;28;20519;-76
2020/12/16 07:33:13;;;;;;;21.13;11.85;;;7.60;99.90;;;;;;6199614;28;20427;-76
2020/12/16 07:36:16;;;;;;;29.52;10.68;;;7.60;99.90;;;;;;6199757;28;20046;-76
2020/12/16 07:39:17;;;;;;;19.40;10.05;;;7.60;99.90;;;;;;6209016;28;20046;-75
2020/12/16 07:42:20;;;;;;;27.63;11.00;;;7.60;99.90;;;;;;6224135;28;20050;-75
2020/12/16 07:45:22;;;;;;;19.83;9.98;;;7.60;99.90;;;;;;6223585;28;20140;-75
2020/12/16 07:48:24;;;;;;;22.63;10.63;;;7.60;99.90;;;;;;6223404;28;20139;-75
2020/12/16 07:51:25;;;;;;;24.75;10.68;;;7.60;99.90;;;;;;6223181;28;20069;-74
2020/12/16 07:54:27;;;;;;;24.02;10.15;;;7.60;99.90;;;;;;6222872;28;20602;-75
2020/12/16 07:57:29;;;;;;;18.30;9.90;;;7.60;99.90;;;;;;6222876;28;20475;-75
2020/12/16 08:00:30;;;;;;;17.98;10.27;;;7.60;99.90;;;;;;6222713;28;20179;-75
2020/12/16 08:03:33;;;;;;;22.30;10.68;;;7.60;99.90;;;;;;6222039;28;20084;-75
2020/12/16 08:06:36;;;;;;;17.70;9.93;;;7.60;99.90;;;;;;6222113;28;20050;-75
2020/12/16 08:09:37;;;;;;;19.08;9.75;;;7.60;99.90;;;;;;6221978;28;20053;-75
2020/12/16 08:12:40;;;;;;;16.30;10.13;;;7.60;99.90;;;;;;6218299;28;20115;-75
2020/12/16 08:15:41;;;;;;;18.50;10.45;;;7.60;99.90;;;;;;6197009;28;20572;-75
2020/12/16 08:18:45;;;;;;;13.80;9.27;;;7.70;99.90;;;;;;6197205;28;20513;-79
2020/12/16 08:21:49;;;;;;;15.35;9.98;;;7.70;99.90;;;;;;6198269;28;20054;-76
2020/12/16 08:24:59;;;;;;;15.23;9.05;;;7.80;99.90;;;;;;6197176;28;20054;-76
2020/12/16 08:28:04;;;;;;;18.33;10.05;;;7.90;99.90;;;;;;6196692;28;20133;-75
2020/12/16 08:31:06;;;;;;;16.83;9.63;;;8.00;99.90;;;;;;6196366;28;20070;-76
2020/12/16 08:34:15;;;;;;;15.40;9.40;;;8.10;99.90;;;;;;6197279;28;20046;-75
2020/12/16 08:37:18;;;;;;;15.32;9.00;;;8.20;99.90;;;;;;6198147;28;20133;-75
2020/12/16 08:40:21;;;;;;;11.88;7.97;;;8.20;99.90;;;;;;6196993;28;20149;-76
2020/12/16 08:43:25;;;;;;;12.45;9.07;;;8.30;99.90;;;;;;6196565;28;20046;-75
2020/12/16 08:46:27;;;;;;;9.90;7.38;;;8.30;99.90;;;;;;6194238;28;20072;-75
2020/12/16 08:49:30;;;;;;;9.85;7.72;;;8.30;99.90;;;;;;6211275;28;20053;-75
2020/12/16 08:52:39;;;;;;;9.50;7.30;;;8.20;99.90;;;;;;6208921;28;20057;-75
2020/12/16 08:55:40;;;;;;;12.50;7.82;;;8.20;99.90;;;;;;6209615;28;20133;-75
2020/12/16 08:58:42;;;;;;;11.75;8.43;;;8.30;99.90;;;;;;6209370;28;20111;-75
2020/12/16 09:01:45;;;;;;;9.50;7.38;;;8.50;99.90;;;;;;6209775;28;20175;-75
2020/12/16 09:04:57;;;;;;;11.60;9.40;;;8.50;99.90;;;;;;6211319;28;20145;-75
2020/12/16 09:08:12;;;;;;;12.30;7.72;;;8.60;99.90;;;;;;6214243;28;20088;-75
2020/12/16 09:11:13;;;;;;;13.57;8.80;;;8.50;99.90;;;;;;6213906;28;20407;-76
2020/12/16 09:14:15;;;;;;;12.13;9.55;;;8.60;99.90;;;;;;6211086;28;20057;-76
2020/12/16 09:17:17;;;;;;;30.25;9.68;;;8.60;99.90;;;;;;6211286;28;20058;-76
2020/12/16 09:20:19;;;;;;;12.68;8.77;;;8.60;99.90;;;;;;6216684;28;20046;-77
2020/12/16 09:23:23;;;;;;;51.58;10.32;;;8.60;99.90;;;;;;6206840;28;20422;-75
2020/12/16 09:26:41;;;;;;;34.28;9.35;;;8.70;99.90;;;;;;6218311;28;20049;-76
2020/12/16 09:29:43;;;;;;;;;;;8.80;99.90;;;;;;6228077;28;20122;-77
2020/12/16 09:32:44;;;;;;;11.73;8.10;;;8.80;99.90;;;;;;6213049;28;19921;-76
2020/12/16 09:35:53;;;;;;;22.40;8.70;;;8.70;99.90;;;;;;6210167;28;20062;-77
2020/12/16 09:38:56;;;;;;;10.32;8.48;;;8.80;99.90;;;;;;6217037;28;20116;-77
2020/12/16 09:41:57;;;;;;;9.82;7.43;;;8.80;99.90;;;;;;6218062;28;20476;-75
2020/12/16 09:45:09;;;;;;;14.52;10.10;;;8.80;99.90;;;;;;6224005;28;20053;-76
2020/12/16 09:48:10;;;;;;;14.55;10.10;;;8.80;99.90;;;;;;6223495;28;20050;-75
2020/12/16 09:51:17;;;;;;;15.63;9.65;;;8.90;99.90;;;;;;6219782;28;20128;-75
2020/12/16 09:54:30;;;;;;;22.10;9.95;;;9.00;99.90;;;;;;6215996;28;20046;-75
2020/12/16 09:57:31;;;;;;;20.00;9.05;;;9.10;99.90;;;;;;6214123;28;20116;-75
2020/12/16 10:00:34;;;;;;;17.73;12.10;;;9.10;99.90;;;;;;6211794;28;20114;-75
2020/12/16 10:03:35;;;;;;;15.00;12.00;;;9.10;99.90;;;;;;6211950;28;20125;-77
2020/12/16 10:06:37;;;;;;;17.33;10.88;;;9.20;99.90;;;;;;6216512;28;20560;-75
2020/12/16 10:09:52;;;;;;;12.38;10.40;;;9.20;99.90;;;;;;6216461;28;20096;-75
2020/12/16 10:12:53;;;;;;;29.95;10.88;;;9.20;99.90;;;;;;6225828;28;20190;-77
2020/12/16 10:15:54;;;;;;;16.23;10.20;;;9.20;99.90;;;;;;6211899;28;20133;-77
2020/12/16 10:18:56;;;;;;;21.23;9.82;;;9.30;99.90;;;;;;6215754;28;20402;-77
2020/12/16 10:21:59;;;;;;;26.40;10.55;;;9.40;99.90;;;;;;6218903;28;20048;-76
2020/12/16 10:25:01;;;;;;;27.83;11.85;;;9.50;99.90;;;;;;6209701;28;20042;-77
2020/12/16 10:28:02;;;;;;;18.00;10.30;;;9.60;99.90;;;;;;6218784;28;20136;-76
2020/12/16 10:31:04;;;;;;;33.03;11.32;;;9.70;99.90;;;;;;6215225;28;20050;-78
2020/12/16 10:34:05;;;;;;;30.13;11.57;;;9.80;99.50;;;;;;6212361;28;20116;-76
2020/12/16 10:37:08;;;;;;;20.75;12.15;;;9.80;99.10;;;;;;6219609;28;20191;-76
2020/12/16 10:40:09;;;;;;;25.98;13.50;;;9.90;99.20;;;;;;6217595;28;20057;-77
2020/12/16 10:43:11;;;;;;;19.23;14.15;;;10.00;99.40;;;;;;6213932;28;20169;-77
2020/12/16 10:46:12;;;;;;;19.80;13.13;;;10.10;99.20;;;;;;6214303;28;20046;-76
2020/12/16 10:49:14;;;;;;;28.05;13.55;;;10.30;99.10;;;;;;6211806;28;20663;-77
2020/12/16 10:52:16;;;;;;;18.25;14.00;;;10.40;98.70;;;;;;6213355;28;20053;-77
2020/12/16 10:55:18;;;;;;;16.13;11.35;;;10.60;98.10;;;;;;6213612;28;20065;-77
2020/12/16 10:58:20;;;;;;;15.85;12.05;;;10.70;97.90;;;;;;6209173;28;20050;-77
2020/12/16 11:01:21;;;;;;;13.68;10.00;;;10.70;97.40;;;;;;6211769;28;20141;-77
2020/12/16 11:04:22;;;;;;;16.00;11.93;;;10.70;96.90;;;;;;6210026;28;20583;-76
2020/12/16 11:07:24;;;;;;;18.50;12.43;;;10.80;96.80;;;;;;6213657;28;20053;-76
2020/12/16 11:10:40;;;;;;;14.70;11.75;;;11.00;96.60;;;;;;6194221;28;20571;-76
2020/12/16 11:13:42;;;;;;;15.23;10.82;;;11.20;96.30;;;;;;6214607;28;20547;-76
2020/12/16 11:16:45;;;;;;;14.38;11.00;;;11.30;96.00;;;;;;6216396;28;20124;-76
2020/12/16 11:19:46;;;;;;;13.93;11.52;;;11.50;95.40;;;;;;6214747;28;20038;-76
2020/12/16 11:22:47;;;;;;;12.93;9.75;;;11.50;94.60;;;;;;6218227;28;20088;-76
2020/12/16 11:25:49;;;;;;;13.52;10.25;;;11.50;94.10;;;;;;6214573;28;20042;-77
2020/12/16 11:28:51;;;;;;;12.95;10.32;;;11.50;94.30;;;;;;6219964;28;20046;-78
2020/12/16 11:31:54;;;;;;;16.30;11.18;;;11.50;94.20;;;;;;6221765;28;20139;-81
2020/12/16 11:34:55;;;;;;;19.02;13.35;;;11.60;94.00;;;;;;6223099;28;20050;-80
2020/12/16 11:37:57;;;;;;;14.80;13.27;;;11.70;94.20;;;;;;6218357;28;20046;-80
2020/12/16 11:40:58;;;;;;;12.70;10.65;;;12.00;93.60;;;;;;6220076;28;20049;-80
2020/12/16 11:44:01;;;;;;;15.38;11.88;;;12.30;93.20;;;;;;6217498;28;20133;-80
2020/12/16 11:47:04;;;;;;;12.38;11.18;;;12.50;93.20;;;;;;6219916;28;20093;-79
2020/12/16 11:50:07;;;;;;;17.63;14.77;;;12.50;91.80;;;;;;6227007;28;20057;-78
2020/12/16 11:53:09;;;;;;;16.67;14.80;;;12.40;92.40;;;;;;6227188;28;20073;-79
2020/12/16 11:56:10;;;;;;;20.63;17.00;;;12.30;92.40;;;;;;6225010;28;20466;-78
2020/12/16 11:59:12;;;;;;;21.88;16.88;;;12.20;92.70;;;;;;6224777;28;20381;-80
2020/12/16 12:02:14;;;;;;;22.60;18.02;;;12.20;93.20;;;;;;6225937;28;20045;-79
2020/12/16 12:05:16;;;;;;;22.25;16.33;;;12.20;93.00;;;;;;6211907;28;20042;-79
2020/12/16 12:08:17;;;;;;;22.08;17.67;;;12.20;92.80;;;;;;6211812;28;20133;-80
2020/12/16 12:11:19;;;;;;;23.60;18.58;;;12.20;92.60;;;;;;6220691;28;20050;-80
2020/12/16 12:14:21;;;;;;;21.98;17.88;;;12.10;92.70;;;;;;6218618;28;20054;-81
2020/12/16 12:17:23;;;;;;;22.63;18.83;;;12.10;92.60;;;;;;6221847;28;20046;-81
2020/12/16 12:20:24;;;;;;;19.85;15.95;;;12.00;92.80;;;;;;6227131;28;20069;-80
2020/12/16 12:23:25;;;;;;;22.05;17.48;;;12.00;92.60;;;;;;6219564;28;20057;-81
2020/12/16 12:26:27;;;;;;;22.05;17.20;;;11.90;93.10;;;;;;6222039;28;20120;-79
2020/12/16 12:29:30;;;;;;;22.85;17.42;;;11.90;93.00;;;;;;6221336;28;20046;-80
2020/12/16 12:32:31;;;;;;;29.80;21.35;;;11.80;93.00;;;;;;6224396;28;20050;-81
2020/12/16 12:35:32;;;;;;;24.20;18.25;;;11.80;93.30;;;;;;6210186;28;20050;-80
2020/12/16 12:38:34;;;;;;;25.77;17.20;;;11.70;93.50;;;;;;6218870;28;20054;-80
2020/12/16 12:41:35;;;;;;;25.08;17.67;;;11.70;93.70;;;;;;6224385;28;20507;-80
2020/12/16 12:44:37;;;;;;;22.15;14.80;;;11.60;94.00;;;;;;6228770;28;20053;-80
2020/12/16 12:47:39;;;;;;;23.75;14.82;;;11.60;94.10;;;;;;6228654;28;20539;-80
2020/12/16 12:50:41;;;;;;;20.15;14.80;;;11.50;94.10;;;;;;6247306;28;20044;-80
2020/12/16 12:53:42;;;;;;;23.42;15.45;;;11.50;94.20;;;;;;6233407;28;20061;-80
2020/12/16 12:56:44;;;;;;;17.67;14.23;;;11.50;94.20;;;;;;6232688;28;20064;-81
2020/12/16 12:59:46;;;;;;;24.38;16.10;;;11.50;94.30;;;;;;6232526;28;20512;-79
2020/12/16 13:02:48;;;;;;;18.08;13.77;;;11.50;94.50;;;;;;6224802;28;20048;-80
2020/12/16 13:05:51;;;;;;;22.77;16.25;;;11.40;94.30;;;;;;6226288;28;20163;-80
2020/12/16 13:08:54;;;;;;;20.85;14.60;;;11.40;94.60;;;;;;6221850;28;20060;-81
2020/12/16 13:11:56;;;;;;;17.63;14.13;;;11.30;95.20;;;;;;6225829;28;20099;-80
2020/12/16 13:14:58;;;;;;;21.63;16.73;;;11.30;95.00;;;;;;6223132;28;20046;-84
2020/12/16 13:17:59;;;;;;;21.67;14.30;;;11.20;95.30;;;;;;6220781;28;20053;-80
2020/12/16 13:21:00;;;;;;;25.10;15.85;;;11.20;95.30;;;;;;6212218;28;20058;-79
2020/12/16 13:24:02;;;;;;;22.75;16.02;;;11.10;95.10;;;;;;6216082;28;20491;-79
2020/12/16 13:27:04;;;;;;;26.38;17.88;;;11.10;95.10;;;;;;6223060;28;20045;-82
2020/12/16 13:30:07;;;;;;;23.85;16.85;;;11.10;95.10;;;;;;6206336;28;20046;-84
2020/12/16 13:33:09;;;;;;;24.38;17.40;;;11.00;95.30;;;;;;6221886;28;20411;-82
2020/12/16 13:36:10;;;;;;;26.17;17.05;;;11.00;95.40;;;;;;6222800;28;20045;-78
2020/12/16 13:39:12;;;;;;;25.10;19.08;;;11.00;95.40;;;;;;6223824;28;20038;-79
2020/12/16 13:42:14;;;;;;;26.65;18.40;;;11.00;95.30;;;;;;6225570;28;20101;-79
2020/12/16 13:45:16;;;;;;;27.00;19.30;;;10.90;95.30;;;;;;6222911;28;20061;-80
2020/12/16 13:48:17;;;;;;;29.02;19.98;;;10.80;95.30;;;;;;6210521;28;20365;-79
2020/12/16 13:51:21;;;;;;;27.27;18.42;;;10.70;95.50;;;;;;6217850;28;20072;-79
2020/12/16 13:54:23;;;;;;;29.58;20.58;;;10.60;95.70;;;;;;6223340;28;20470;-78
2020/12/16 13:57:24;;;;;;;24.98;19.17;;;10.60;96.00;;;;;;6216305;28;20046;-78
2020/12/16 14:00:26;;;;;;;29.98;19.98;;;10.60;96.10;;;;;;6219144;28;20046;-79
2020/12/16 14:03:28;;;;;;;29.45;19.83;;;10.60;96.20;;;;;;6209789;28;20515;-78
2020/12/16 14:06:29;;;;;;;32.10;22.95;;;10.60;96.30;;;;;;6214533;28;20091;-77
2020/12/16 14:09:31;;;;;;;33.28;22.67;;;10.60;96.40;;;;;;6204878;28;20138;-78
2020/12/16 14:12:32;;;;;;;34.67;25.95;;;10.60;96.50;;;;;;6222149;28;20112;-78
2020/12/16 14:15:34;;;;;;;35.45;24.98;;;10.50;96.50;;;;;;6213015;28;20061;-79
2020/12/16 14:18:37;;;;;;;43.20;25.08;;;10.50;96.70;;;;;;6208242;28;20512;-78
2020/12/16 14:21:38;;;;;;;38.85;23.63;;;10.40;96.70;;;;;;6215121;28;20062;-78
2020/12/16 14:24:39;;;;;;;35.83;25.20;;;10.40;97.00;;;;;;6216650;28;20061;-78
2020/12/16 14:27:41;;;;;;;39.95;24.58;;;10.40;96.80;;;;;;6212670;28;20127;-78
2020/12/16 14:30:43;;;;;;;39.35;25.73;;;10.40;96.90;;;;;;6209243;28;20109;-78
2020/12/16 14:33:44;;;;;;;38.22;25.90;;;10.30;97.10;;;;;;6213763;28;20046;-79
2020/12/16 14:36:46;;;;;;;33.42;23.38;;;10.30;97.40;;;;;;6219853;28;20508;-78
2020/12/16 14:39:48;;;;;;;37.90;25.42;;;10.30;97.40;;;;;;6224796;28;20102;-77
2020/12/16 14:42:49;;;;;;;41.58;27.45;;;10.20;97.50;;;;;;6228861;28;20049;-78
2020/12/16 14:45:52;;;;;;;39.75;26.13;;;10.10;97.60;;;;;;6227965;28;20045;-78
2020/12/16 14:48:54;;;;;;;40.83;26.30;;;10.10;97.70;;;;;;6222355;28;20049;-80
2020/12/16 14:51:56;;;;;;;53.05;29.90;;;10.00;97.80;;;;;;6218175;28;20050;-79
2020/12/16 14:54:57;;;;;;;60.45;27.90;;;10.00;97.90;;;;;;6201526;28;20047;-78
2020/12/16 14:57:58;;;;;;;76.07;29.65;;;10.00;98.00;;;;;;6204514;28;20137;-77
2020/12/16 15:01:02;;;;;;;65.60;28.80;;;9.90;98.10;;;;;;6219997;28;20524;-78
2020/12/16 15:04:03;;;;;;;48.40;30.55;;;9.90;98.30;;;;;;6216190;28;20108;-78
2020/12/16 15:07:05;;;;;;;57.30;30.90;;;9.80;98.50;;;;;;6220473;28;20050;-77
2020/12/16 15:10:06;;;;;;;50.20;29.95;;;9.80;98.60;;;;;;6214147;28;20116;-78
2020/12/16 15:13:07;;;;;;;49.28;28.88;;;9.80;98.80;;;;;;6213588;28;20204;-79
2020/12/16 15:16:10;;;;;;;95.03;31.80;;;9.80;99.00;;;;;;6226216;28;20056;-78
2020/12/16 15:19:12;;;;;;;82.70;34.83;;;9.80;99.00;;;;;;6218580;28;20050;-78
2020/12/16 15:22:13;;;;;;;75.88;29.08;;;9.70;99.10;;;;;;6220621;28;20049;-79
2020/12/16 15:25:14;;;;;;;137.95;39.30;;;9.70;99.20;;;;;;6219995;28;20607;-78
2020/12/16 15:28:16;;;;;;;98.25;32.70;;;9.60;99.30;;;;;;6206541;28;20046;-79
2020/12/16 15:31:19;;;;;;;67.47;29.85;;;9.60;99.30;;;;;;6212489;28;20176;-79
2020/12/16 15:34:20;;;;;;;133.73;30.08;;;9.60;99.40;;;;;;6212125;28;20050;-79
2020/12/16 15:37:21;;;;;;;59.00;28.25;;;9.60;99.50;;;;;;6214796;28;20133;-78